Time;durP1;ratioP1;P1;durP2;ratioP2;P2;SDS_P1;SDS_P2;PMS_P1;PMS_P2;Temp;Humidity;BMP_temperature;BMP_pressure;BME280_temperature;BME280_humidity;BME280_pressure;Samples;Min_cycle;Max_cycle;Signal;HPM_P1;HPM_P2
2023/10/11 00:00:34;;;;;;;17.27;7.90;;;;;;;14.21;100.00;98431.16;5113401;28;20219;-75
2023/10/11 00:03:17;;;;;;;11.40;6.60;;;;;;;14.13;100.00;98434.16;5113636;28;20231;-75
2023/10/11 00:05:46;;;;;;;13.27;7.30;;;;;;;14.10;100.00;98431.94;5113333;28;20695;-75
2023/10/11 00:08:16;;;;;;;13.80;7.33;;;;;;;14.08;100.00;98434.03;5113533;28;20231;-75
2023/10/11 00:10:54;;;;;;;11.57;7.27;;;;;;;14.05;100.00;98431.81;5113500;28;20272;-75
2023/10/11 00:13:25;;;;;;;12.77;6.67;;;;;;;14.09;100.00;98432.16;5113545;28;20210;-75
2023/10/11 00:15:53;;;;;;;14.13;6.63;;;;;;;14.11;100.00;98433.53;5113387;28;20188;-75
2023/10/11 00:18:22;;;;;;;13.27;7.10;;;;;;;14.08;100.00;98426.00;5114063;28;20223;-75
2023/10/11 00:20:52;;;;;;;13.37;6.83;;;;;;;14.00;100.00;98434.38;5115010;28;20588;-75
2023/10/11 00:23:22;;;;;;;15.07;6.70;;;;;;;13.93;100.00;98435.53;5117217;28;20298;-75
2023/10/11 00:25:51;;;;;;;12.90;6.77;;;;;;;13.92;100.00;98432.03;5117164;28;20272;-75
2023/10/11 00:28:23;;;;;;;13.93;7.00;;;;;;;13.98;100.00;98431.09;5116713;27;20234;-75
2023/10/11 00:31:00;;;;;;;15.20;6.90;;;;;;;14.02;100.00;98426.91;5117029;28;20191;-75
2023/10/11 00:33:31;;;;;;;16.40;7.20;;;;;;;14.02;100.00;98423.44;5117333;28;20186;-75
2023/10/11 00:36:01;;;;;;;13.73;6.57;;;;;;;14.01;100.00;98419.94;5116958;28;20187;-75
2023/10/11 00:38:27;;;;;;;12.57;7.20;;;;;;;14.01;100.00;98421.78;5116812;28;20249;-75
2023/10/11 00:41:07;;;;;;;11.30;7.00;;;;;;;14.08;100.00;98430.53;5116850;28;20199;-75
2023/10/11 00:43:42;;;;;;;12.03;6.90;;;;;;;14.04;100.00;98424.00;5116929;27;20298;-75
2023/10/11 00:46:14;;;;;;;14.00;6.20;;;;;;;14.07;100.00;98420.88;5116833;28;20285;-75
2023/10/11 00:48:51;;;;;;;12.60;6.53;;;;;;;14.11;100.00;98420.19;5116844;28;20329;-75
2023/10/11 00:51:19;;;;;;;11.63;6.87;;;;;;;13.99;100.00;98419.38;5116924;28;20187;-75
2023/10/11 00:53:48;;;;;;;10.67;6.50;;;;;;;13.99;100.00;98407.84;5116809;28;20202;-75
2023/10/11 00:56:14;;;;;;;14.93;6.07;;;;;;;14.04;100.00;98411.47;5116497;28;20218;-75
2023/10/11 00:58:43;;;;;;;10.23;6.77;;;;;;;14.06;100.00;98412.03;5116646;28;20235;-75
2023/10/11 01:01:10;;;;;;;10.30;6.37;;;;;;;14.04;100.00;98408.81;5116645;28;20256;-75
2023/10/11 01:03:37;;;;;;;10.60;6.03;;;;;;;14.04;100.00;98408.81;5116448;28;20227;-75
2023/10/11 01:06:05;;;;;;;11.23;6.70;;;;;;;13.99;100.00;98405.19;5116565;28;20210;-75
2023/10/11 01:08:38;;;;;;;15.23;7.13;;;;;;;13.96;100.00;98408.31;5116084;28;20760;-75
2023/10/11 01:11:11;;;;;;;11.90;6.17;;;;;;;13.94;100.00;98411.25;5116382;28;20198;-75
2023/10/11 01:13:40;;;;;;;12.87;6.67;;;;;;;13.85;100.00;98409.13;5115220;28;20187;-75
2023/10/11 01:16:07;;;;;;;12.60;6.77;;;;;;;13.82;100.00;98399.72;5116140;27;20542;-75
2023/10/11 01:18:34;;;;;;;14.13;6.80;;;;;;;13.85;100.00;98401.94;5115931;28;20702;-75
2023/10/11 01:21:05;;;;;;;12.33;6.40;;;;;;;13.87;100.00;98397.16;5116151;28;20211;-75
2023/10/11 01:23:34;;;;;;;12.87;6.13;;;;;;;13.84;100.00;98396.81;5116107;28;20223;-75
2023/10/11 01:26:06;;;;;;;10.90;6.47;;;;;;;13.84;100.00;98386.94;5115830;28;20570;-75
2023/10/11 01:28:34;;;;;;;11.40;6.67;;;;;;;13.89;100.00;98400.41;5116070;28;20276;-75
2023/10/11 01:31:01;;;;;;;13.33;6.40;;;;;;;13.84;100.00;98386.94;5115830;28;20207;-75
2023/10/11 01:33:28;;;;;;;12.07;6.37;;;;;;;13.86;100.00;98379.50;5115693;28;20595;-75
2023/10/11 01:35:55;;;;;;;11.30;6.43;;;;;;;13.87;100.00;98381.13;5115710;28;20623;-75
2023/10/11 01:38:21;;;;;;;12.80;6.57;;;;;;;13.90;100.00;98382.53;5115878;28;20231;-75
2023/10/11 01:40:54;;;;;;;11.83;6.30;;;;;;;13.83;100.00;98385.31;5115594;28;20207;-75
2023/10/11 01:43:20;;;;;;;13.07;6.60;;;;;;;13.82;100.00;98381.00;5115891;27;20286;-75
2023/10/11 01:45:46;;;;;;;11.33;6.33;;;;;;;13.84;100.00;98383.47;5115700;28;20299;-75
2023/10/11 01:48:15;;;;;;;13.10;6.47;;;;;;;13.83;100.00;98379.16;5115839;28;20227;-75
2023/10/11 01:50:41;;;;;;;10.90;6.43;;;;;;;13.82;100.00;98382.84;5115688;28;20252;-75
2023/10/11 01:53:08;;;;;;;12.70;6.40;;;;;;;13.79;100.00;98381.47;5115458;28;20688;-75
2023/10/11 01:55:39;;;;;;;12.50;6.47;;;;;;;13.78;100.00;98371.81;5115261;28;20207;-75
2023/10/11 01:58:06;;;;;;;9.20;6.07;;;;;;;13.75;100.00;98374.94;5115508;28;20227;-75
2023/10/11 02:00:34;;;;;;;11.20;6.27;;;;;;;13.68;100.00;98376.94;5115185;28;20693;-75
2023/10/11 02:03:02;;;;;;;11.47;5.83;;;;;;;13.74;100.00;98375.22;5115384;28;20223;-75
2023/10/11 02:05:31;;;;;;;10.90;5.90;;;;;;;13.76;100.00;98376.59;5115225;28;20302;-75
2023/10/11 02:07:57;;;;;;;12.57;6.23;;;;;;;13.74;100.00;98372.53;5115171;28;20305;-75
2023/10/11 02:10:26;;;;;;;12.93;6.23;;;;;;;13.71;100.00;98375.66;5115247;28;20225;-77
2023/10/11 02:12:56;;;;;;;9.73;5.67;;;;;;;13.64;100.00;98373.09;5115101;28;20206;-75
2023/10/11 02:15:28;;;;;;;12.77;5.93;;;;;;;13.63;100.00;98368.81;5115142;28;20302;-75
2023/10/11 02:17:55;;;;;;;14.10;6.17;;;;;;;13.69;100.00;98367.88;5114534;28;20231;-75
2023/10/11 02:20:22;;;;;;;9.43;5.87;;;;;;;13.63;100.00;98366.13;5114930;28;20209;-75
2023/10/11 02:22:55;;;;;;;10.80;5.67;;;;;;;13.63;100.00;98365.31;5114478;28;20694;-75
2023/10/11 02:25:25;;;;;;;9.47;6.30;;;;;;;13.56;100.00;98360.06;5114943;28;20191;-75
2023/10/11 02:27:56;;;;;;;10.30;5.87;;;;;;;13.57;100.00;98366.22;5114406;28;20230;-75
2023/10/11 02:30:24;;;;;;;10.70;6.53;;;;;;;13.68;100.00;98373.44;5114819;28;20198;-75
2023/10/11 02:32:58;;;;;;;11.80;6.13;;;;;;;13.62;100.00;98367.16;5114346;28;20207;-75
2023/10/11 02:35:26;;;;;;;10.30;6.10;;;;;;;13.67;100.00;98364.63;5114723;28;20255;-75
2023/10/11 02:37:55;;;;;;;11.53;6.33;;;;;;;13.62;100.00;98377.03;5115088;28;20227;-75
2023/10/11 02:40:23;;;;;;;10.30;6.27;;;;;;;13.61;100.00;98362.84;5114485;28;20211;-75
2023/10/11 02:42:55;;;;;;;9.23;6.10;;;;;;;13.61;100.00;98362.06;5113762;28;20227;-75
2023/10/11 02:45:23;;;;;;;10.93;6.20;;;;;;;13.68;100.00;98365.41;5114551;28;20599;-75
2023/10/11 02:47:59;;;;;;;10.90;6.30;;;;;;;13.57;100.00;98361.69;5114860;28;20219;-75
2023/10/11 02:50:36;;;;;;;10.40;6.57;;;;;;;13.61;100.00;98354.03;5114351;27;20187;-75
2023/10/11 02:53:20;;;;;;;8.43;5.90;;;;;;;13.64;100.00;98357.06;5114290;28;20191;-75
2023/10/11 02:55:57;;;;;;;10.90;6.13;;;;;;;13.66;100.00;98354.16;5114203;28;20194;-75
2023/10/11 02:58:29;;;;;;;13.23;6.40;;;;;;;13.59;100.00;98359.63;5114067;28;20227;-75
2023/10/11 03:01:02;;;;;;;11.53;6.60;;;;;;;13.60;100.00;98355.06;5114270;28;20206;-75
2023/10/11 03:03:29;;;;;;;11.40;6.03;;;;;;;13.64;100.00;98357.06;5114170;28;20295;-75
2023/10/11 03:05:56;;;;;;;12.70;6.43;;;;;;;13.59;100.00;98348.09;5114158;28;20210;-75
2023/10/11 03:08:26;;;;;;;13.47;6.77;;;;;;;13.54;100.00;98345.31;5114142;28;20563;-75
2023/10/11 03:10:57;;;;;;;11.90;6.23;;;;;;;13.49;100.00;98340.69;5114221;28;20210;-75
2023/10/11 03:13:29;;;;;;;11.80;6.20;;;;;;;13.44;100.00;98347.75;5114190;28;20264;-75
2023/10/11 03:15:57;;;;;;;13.27;6.00;;;;;;;13.48;100.00;98346.25;5114056;28;20193;-76
2023/10/11 03:18:31;;;;;;;10.13;6.10;;;;;;;13.46;100.00;98348.31;5114205;28;20780;-75
2023/10/11 03:21:07;;;;;;;9.87;6.10;;;;;;;13.41;100.00;98357.03;5113741;28;20656;-75
2023/10/11 03:23:43;;;;;;;9.80;6.30;;;;;;;13.47;100.00;98345.41;5114455;28;20297;-75
2023/10/11 03:26:17;;;;;;;11.27;6.00;;;;;;;13.46;100.00;98341.13;5113958;28;20234;-75
2023/10/11 03:28:56;;;;;;;11.13;6.13;;;;;;;13.44;100.00;98340.56;5113776;28;20232;-75
2023/10/11 03:31:24;;;;;;;12.20;6.33;;;;;;;13.34;100.00;98336.81;5113939;28;20183;-75
2023/10/11 03:33:51;;;;;;;10.50;6.43;;;;;;;13.39;100.00;98340.41;5113408;28;20204;-75
2023/10/11 03:36:20;;;;;;;10.67;6.40;;;;;;;13.39;100.00;98345.75;5113658;28;20207;-75
2023/10/11 03:38:51;;;;;;;11.93;6.40;;;;;;;13.34;100.00;98339.47;5113573;28;20227;-75
2023/10/11 03:41:25;;;;;;;10.87;6.67;;;;;;;13.34;100.00;98342.16;5113850;28;20189;-75
2023/10/11 03:43:54;;;;;;;10.37;6.17;;;;;;;13.34;100.00;98328.81;5113898;28;20259;-75
2023/10/11 03:46:28;;;;;;;14.50;6.63;;;;;;;13.34;100.00;98336.81;5113535;28;20207;-75
2023/10/11 03:49:02;;;;;;;10.63;5.83;;;;;;;13.32;100.00;98329.03;5113648;28;20273;-75
2023/10/11 03:51:29;;;;;;;9.33;6.63;;;;;;;13.22;100.00;98330.63;5113991;28;20543;-75
2023/10/11 03:53:56;;;;;;;10.17;6.53;;;;;;;13.15;100.00;98336.06;5114401;28;20294;-76
2023/10/11 03:56:22;;;;;;;11.00;6.30;;;;;;;13.25;100.00;98340.84;5117766;28;20238;-75
2023/10/11 03:58:50;;;;;;;16.13;6.03;;;;;;;13.25;100.00;98341.66;5117435;28;20707;-75
2023/10/11 04:01:23;;;;;;;9.07;5.83;;;;;;;13.21;100.00;98334.34;5118780;28;20213;-75
2023/10/11 04:03:50;;;;;;;12.93;6.70;;;;;;;13.20;100.00;98333.50;5118543;28;20305;-75
2023/10/11 04:06:19;;;;;;;12.40;7.10;;;;;;;13.19;100.00;98337.25;5117863;28;20303;-75
2023/10/11 04:08:50;;;;;;;13.17;6.60;;;;;;;13.17;100.00;98328.66;5117309;28;20229;-75
2023/10/11 04:11:18;;;;;;;11.03;6.63;;;;;;;13.29;100.00;98336.69;5117620;27;20601;-75
2023/10/11 04:13:47;;;;;;;13.90;6.57;;;;;;;13.31;100.00;98334.59;5117538;28;20234;-75
2023/10/11 04:16:16;;;;;;;12.83;7.00;;;;;;;13.29;100.00;98336.69;5116759;27;20214;-75
2023/10/11 04:18:43;;;;;;;13.27;6.53;;;;;;;13.27;100.00;98333.41;5118344;28;20237;-75
2023/10/11 04:24:00;;;;;;;11.77;7.03;;;;;;;13.32;100.00;98337.03;5042156;28;20237;-75
2023/10/11 04:26:35;;;;;;;9.87;6.40;;;;;;;13.30;100.00;98336.44;5119118;28;20194;-75
2023/10/11 04:31:55;;;;;;;10.83;6.10;;;;;;;13.27;100.00;98334.25;5113668;27;20252;-75
2023/10/11 04:34:31;;;;;;;11.07;6.20;;;;;;;13.22;100.00;98336.78;5117311;28;20190;-75
2023/10/11 04:36:59;;;;;;;11.23;6.43;;;;;;;13.20;100.00;98327.38;5117183;28;20204;-75
2023/10/11 04:39:33;;;;;;;9.20;6.67;;;;;;;13.19;100.00;98337.25;5116996;28;20339;-75
2023/10/11 04:42:00;;;;;;;10.47;5.90;;;;;;;13.16;100.00;98348.34;5116942;28;20194;-75
2023/10/11 04:44:31;;;;;;;10.20;6.13;;;;;;;13.12;100.00;98344.50;5116855;28;20241;-75
2023/10/11 04:47:00;;;;;;;9.93;6.53;;;;;;;13.19;100.00;98345.25;5116827;28;20193;-75
2023/10/11 04:49:30;;;;;;;13.97;6.73;;;;;;;13.15;100.00;98346.75;5117734;28;20226;-75
2023/10/11 04:51:57;;;;;;;12.33;6.00;;;;;;;13.10;100.00;98349.28;5117530;28;20256;-75
2023/10/11 04:54:36;;;;;;;12.57;6.60;;;;;;;13.08;100.00;98348.72;5116233;28;20658;-75
2023/10/11 04:57:07;;;;;;;10.83;6.43;;;;;;;13.03;100.00;98340.53;5116384;28;20689;-75
2023/10/11 04:59:36;;;;;;;12.20;6.23;;;;;;;12.97;100.00;98346.78;5116438;28;20552;-75
2023/10/11 05:02:16;;;;;;;16.57;7.00;;;;;;;12.99;100.00;98350.06;5116402;28;20206;-75
2023/10/11 05:04:44;;;;;;;11.97;7.17;;;;;;;12.92;100.00;98351.97;5115979;27;20264;-76
2023/10/11 05:07:12;;;;;;;14.97;6.67;;;;;;;12.90;100.00;98347.91;5115483;27;20298;-75
2023/10/11 05:09:39;;;;;;;11.67;6.43;;;;;;;12.88;100.00;98345.44;5116041;28;20220;-75
2023/10/11 05:12:10;;;;;;;16.73;7.67;;;;;;;12.78;100.00;98345.19;5116688;28;20556;-76
2023/10/11 05:14:40;;;;;;;12.90;6.53;;;;;;;12.83;100.00;98352.50;5115842;28;20285;-76
2023/10/11 05:17:31;;;;;;;11.87;6.57;;;;;;;12.86;100.00;98352.06;5115516;28;20217;-76
2023/10/11 05:20:22;;;;;;;12.27;7.23;;;;;;;12.82;100.00;98349.03;5115604;28;20546;-76
2023/10/11 05:22:49;;;;;;;13.53;7.50;;;;;;;12.78;100.00;98355.84;5115749;28;20676;-76
2023/10/11 05:25:38;;;;;;;12.47;6.93;;;;;;;12.86;100.00;98352.88;5115756;28;20215;-76
2023/10/11 05:31:06;;;;;;;15.00;7.60;;;;;;;12.78;100.00;98344.34;5115397;27;20197;-76
2023/10/11 05:33:41;;;;;;;13.93;6.73;;;;;;;12.74;100.00;98351.19;5115816;28;20234;-76
2023/10/11 05:36:17;;;;;;;11.27;6.70;;;;;;;12.73;100.00;98353.06;5115832;28;20186;-76
2023/10/11 05:52:37;;;;;;;12.07;6.23;;;;;;;12.83;100.00;98364.00;5067741;28;20291;-75
2023/10/11 05:55:06;;;;;;;10.93;6.20;;;;;;;12.76;100.00;98365.13;5115264;28;20198;-76
2023/10/11 05:57:33;;;;;;;11.43;6.03;;;;;;;12.84;100.00;98367.50;5115208;28;20272;-76
2023/10/11 06:00:08;;;;;;;13.23;7.17;;;;;;;12.82;100.00;98367.72;5115410;27;20301;-76
2023/10/11 06:02:35;;;;;;;11.03;6.03;;;;;;;12.77;100.00;98370.25;5115170;28;20218;-76
2023/10/11 06:05:02;;;;;;;11.47;6.27;;;;;;;12.72;100.00;98367.44;5115735;28;20535;-77
2023/10/11 06:07:36;;;;;;;14.57;6.47;;;;;;;12.76;100.00;98368.63;5114581;28;20230;-75
2023/10/11 06:10:06;;;;;;;12.23;6.63;;;;;;;12.79;100.00;98364.69;5114230;28;20214;-76
2023/10/11 06:12:33;;;;;;;10.53;6.17;;;;;;;12.87;100.00;98359.84;5114509;28;20210;-76
2023/10/11 06:15:04;;;;;;;14.87;6.37;;;;;;;12.87;100.00;98359.00;5114581;28;20668;-76
2023/10/11 06:17:41;;;;;;;13.27;6.33;;;;;;;12.90;100.00;98364.75;5113259;28;20636;-75
2023/10/11 06:20:23;;;;;;;13.77;6.47;;;;;;;12.99;100.00;98362.59;5114644;28;20193;-75
2023/10/11 06:22:52;;;;;;;12.87;6.30;;;;;;;13.05;100.00;98359.81;5114769;28;20656;-76
2023/10/11 06:25:23;;;;;;;12.63;6.50;;;;;;;13.04;100.00;98352.88;5114823;28;20257;-76
2023/10/11 06:30:35;;;;;;;9.93;6.33;;;;;;;13.09;100.00;98355.66;5114540;28;20747;-75
2023/10/11 06:33:05;;;;;;;14.77;6.50;;;;;;;13.18;100.00;98353.47;5114404;28;20213;-75
2023/10/11 06:35:43;;;;;;;11.43;5.93;;;;;;;13.25;100.00;98354.22;5114304;28;20265;-75
2023/10/11 06:38:10;;;;;;;11.40;6.23;;;;;;;13.31;100.00;98356.78;5114289;28;20229;-76
2023/10/11 06:40:39;;;;;;;15.33;6.87;;;;;;;13.30;100.00;98355.13;5114053;28;20645;-75
2023/10/11 06:43:06;;;;;;;12.27;6.93;;;;;;;13.44;100.00;98345.06;5114392;28;20211;-75
2023/10/11 06:45:33;;;;;;;13.13;6.83;;;;;;;13.41;100.00;98357.03;5114070;28;20245;-75
2023/10/11 06:48:06;;;;;;;15.37;7.13;;;;;;;13.49;100.00;98363.88;5113906;28;20230;-75
2023/10/11 06:50:37;;;;;;;15.37;7.43;;;;;;;13.62;100.00;98361.81;5114382;28;20286;-76
2023/10/11 06:53:07;;;;;;;13.43;6.60;;;;;;;13.64;100.00;98367.75;5114152;28;20220;-75
2023/10/11 06:55:35;;;;;;;11.10;6.83;;;;;;;13.66;100.00;98367.53;5114109;28;20206;-75
2023/10/11 06:58:08;;;;;;;13.17;6.67;;;;;;;13.78;100.00;98374.50;5113921;28;20257;-76
2023/10/11 07:00:37;;;;;;;13.57;6.47;;;;;;;13.85;100.00;98369.03;5114133;28;20188;-75
2023/10/11 07:03:09;;;;;;;14.00;6.13;;;;;;;13.90;100.00;98378.00;5113971;28;20284;-75
2023/10/11 07:05:42;;;;;;;10.57;6.30;;;;;;;13.93;100.00;98376.72;5113431;28;20259;-75
2023/10/11 07:08:09;;;;;;;11.13;5.13;;;;;;;14.06;100.00;98379.97;5113935;28;20588;-75
2023/10/11 07:10:41;;;;;;;11.97;6.73;;;;;;;14.10;100.00;98377.63;5113789;28;20267;-75
2023/10/11 07:13:12;;;;;;;12.70;5.87;;;;;;;14.17;100.00;98378.34;5113564;28;20248;-76
2023/10/11 07:15:50;;;;;;;14.13;6.20;;;;;;;14.19;100.00;98376.22;5113602;28;20184;-75
2023/10/11 07:18:25;;;;;;;10.77;6.27;;;;;;;14.20;100.00;98373.34;5113311;28;20697;-75
2023/10/11 07:23:55;;;;;;;10.03;6.00;;;;;;;14.45;100.00;98381.13;5113399;28;20271;-76
2023/10/11 07:29:12;;;;;;;11.87;6.00;;;;;;;14.52;100.00;98392.50;5112922;28;20597;-76
2023/10/11 07:31:48;;;;;;;11.10;5.70;;;;;;;14.61;100.00;98394.56;5113620;28;20203;-76
2023/10/11 07:34:20;;;;;;;9.40;6.40;;;;;;;14.72;100.00;98393.75;5113298;28;20634;-76
2023/10/11 07:36:48;;;;;;;8.07;5.77;;;;;;;14.83;100.00;98395.56;5113630;28;20210;-75
2023/10/11 07:39:19;;;;;;;11.80;6.20;;;;;;;14.91;100.00;98397.06;5113182;28;20634;-75
2023/10/11 07:41:47;;;;;;;10.50;6.00;;;;;;;15.04;100.00;98396.78;5113463;28;20555;-75
2023/10/11 07:44:14;;;;;;;11.70;6.20;;;;;;;15.09;100.00;98397.69;5113674;28;20276;-76
2023/10/11 07:46:40;;;;;;;12.93;6.47;;;;;;;15.18;100.00;98398.94;5113947;28;20218;-76
2023/10/11 07:49:14;;;;;;;12.63;6.10;;;;;;;15.34;100.00;98397.38;5113351;28;20223;-76
2023/10/11 07:51:41;;;;;;;10.33;6.57;;;;;;;15.40;100.00;98391.88;5113783;28;20187;-76
2023/10/11 07:54:19;;;;;;;15.90;6.10;;;;;;;15.55;100.00;98391.31;5113596;28;20260;-76
2023/10/11 07:56:46;;;;;;;12.17;5.90;;;;;;;15.66;100.00;98385.06;5113639;28;20198;-76
2023/10/11 07:59:13;;;;;;;10.67;5.63;;;;;;;15.67;100.00;98386.69;5113142;28;20275;-76
2023/10/11 08:01:43;;;;;;;10.30;6.13;;;;;;;15.71;100.00;98385.16;5113327;28;20203;-76
2023/10/11 08:04:17;;;;;;;16.03;5.63;;;;;;;15.76;99.33;98379.88;5114064;28;20268;-76
2023/10/11 08:06:43;;;;;;;12.13;6.23;;;;;;;15.83;97.64;98386.69;5113753;28;20230;-76
2023/10/11 08:09:19;;;;;;;13.90;6.07;;;;;;;16.01;97.80;98382.97;5113600;28;20223;-76
2023/10/11 08:11:52;;;;;;;13.40;6.40;;;;;;;16.06;95.21;98391.88;5113447;28;20190;-76
2023/10/11 08:14:22;;;;;;;10.83;5.40;;;;;;;16.13;94.67;98389.84;5113262;28;20184;-76
2023/10/11 08:16:52;;;;;;;14.47;5.90;;;;;;;16.15;95.13;98385.03;5113090;28;20211;-76
2023/10/11 08:19:19;;;;;;;10.33;5.77;;;;;;;16.26;94.45;98388.69;5113010;28;20606;-76
2023/10/11 08:21:54;;;;;;;14.20;6.17;;;;;;;16.42;93.36;98386.00;5113470;28;20199;-76
2023/10/11 08:24:25;;;;;;;14.17;5.67;;;;;;;16.41;92.90;98379.00;5113164;28;20215;-76
2023/10/11 08:27:07;;;;;;;10.73;5.70;;;;;;;16.58;91.93;98376.28;5113653;28;20197;-76
2023/10/11 08:29:35;;;;;;;14.17;6.57;;;;;;;16.60;91.87;98380.34;5113440;28;20183;-76
2023/10/11 08:32:06;;;;;;;13.13;6.10;;;;;;;16.83;91.13;98382.75;5113265;28;20249;-75
2023/10/11 08:34:34;;;;;;;15.00;5.40;;;;;;;17.09;88.40;98382.00;5112709;28;20631;-75
2023/10/11 08:37:00;;;;;;;14.50;5.93;;;;;;;17.19;89.22;98392.84;5113699;28;20211;-75
2023/10/11 08:39:35;;;;;;;11.83;5.30;;;;;;;17.42;85.96;98381.03;5112904;28;20242;-75
2023/10/11 08:42:08;;;;;;;14.97;6.20;;;;;;;17.53;85.75;98391.63;5115394;28;20191;-75
2023/10/11 08:44:34;;;;;;;10.67;5.33;;;;;;;17.39;85.53;98387.72;5117325;28;20235;-76
2023/10/11 08:47:04;;;;;;;11.73;5.40;;;;;;;17.60;85.21;98388.72;5116667;28;20565;-75
2023/10/11 08:49:33;;;;;;;12.10;5.87;;;;;;;17.53;86.04;98383.56;5115772;28;20226;-76
2023/10/11 08:52:00;;;;;;;16.57;6.90;;;;;;;17.66;84.79;98385.84;5116441;28;20773;-75
2023/10/11 08:54:28;;;;;;;12.53;6.73;;;;;;;17.90;83.57;98379.03;5116683;28;20203;-75
2023/10/11 08:56:57;;;;;;;16.47;5.33;;;;;;;18.12;80.76;98382.41;5116189;28;20681;-75
2023/10/11 08:59:30;;;;;;;11.87;6.17;;;;;;;18.06;80.53;98383.44;5116386;28;20233;-75
2023/10/11 09:01:59;;;;;;;8.93;4.80;;;;;;;18.31;81.82;98382.78;5116498;28;20192;-75
2023/10/11 09:04:27;;;;;;;16.10;6.80;;;;;;;18.54;79.30;98375.16;5115962;28;20262;-74
2023/10/11 09:06:57;;;;;;;13.33;5.43;;;;;;;18.72;79.39;98374.72;5116232;28;20646;-74
2023/10/11 09:09:39;;;;;;;11.57;5.90;;;;;;;18.85;78.39;98370.72;5115829;28;20227;-75
2023/10/11 09:12:24;;;;;;;17.90;6.23;;;;;;;19.05;76.86;98370.78;5116388;27;20187;-74
2023/10/11 09:15:03;;;;;;;14.20;6.10;;;;;;;18.90;76.49;98370.72;5115897;28;20666;-75
2023/10/11 09:17:38;;;;;;;12.57;5.70;;;;;;;19.11;76.14;98365.16;5115990;28;20230;-75
2023/10/11 09:20:15;;;;;;;12.80;5.63;;;;;;;19.07;77.88;98374.84;5116140;28;20195;-74
2023/10/11 09:22:52;;;;;;;21.00;6.30;;;;;;;19.38;76.15;98371.16;5115679;28;20249;-74
2023/10/11 09:25:22;;;;;;;14.57;6.37;;;;;;;19.48;76.17;98371.19;5115989;28;20207;-74
2023/10/11 09:27:50;;;;;;;14.43;6.00;;;;;;;19.77;75.51;98357.16;5115724;28;20255;-74
2023/10/11 09:30:21;;;;;;;14.37;6.10;;;;;;;19.84;74.45;98365.81;5115724;28;20209;-74
2023/10/11 09:32:51;;;;;;;13.07;6.63;;;;;;;20.12;73.51;98370.66;5115613;28;20203;-74
2023/10/11 09:35:26;;;;;;;14.53;5.90;;;;;;;20.16;72.30;98369.06;5116058;28;20195;-74
2023/10/11 09:37:57;;;;;;;11.17;5.83;;;;;;;20.14;72.07;98372.00;5115884;28;20225;-75
2023/10/11 09:40:31;;;;;;;11.57;6.23;;;;;;;20.22;71.39;98373.34;5115866;28;20617;-77
2023/10/11 09:43:01;;;;;;;13.60;6.10;;;;;;;20.28;71.50;98374.94;5115420;28;20198;-76
2023/10/11 09:45:41;;;;;;;10.40;6.00;;;;;;;20.38;70.89;98372.22;5116807;28;20207;-76
2023/10/11 09:48:10;;;;;;;12.97;6.27;;;;;;;20.35;72.09;98372.78;5115547;28;20227;-76
2023/10/11 09:50:41;;;;;;;15.07;6.17;;;;;;;20.65;70.42;98369.97;5115217;27;20203;-76
2023/10/11 09:53:11;;;;;;;15.40;6.50;;;;;;;20.65;70.32;98373.50;5115288;28;20237;-75
2023/10/11 09:55:44;;;;;;;17.40;6.17;;;;;;;20.81;69.82;98376.97;5115518;28;20279;-76
2023/10/11 09:58:22;;;;;;;11.17;6.23;;;;;;;20.90;70.92;98370.75;5114876;28;20697;-76
2023/10/11 10:00:59;;;;;;;14.07;6.17;;;;;;;21.27;67.22;98373.78;5115287;28;20222;-76
2023/10/11 10:03:26;;;;;;;14.67;5.80;;;;;;;21.47;66.04;98362.03;5114718;28;20599;-76
2023/10/11 10:06:18;;;;;;;13.23;6.10;;;;;;;21.39;66.32;98370.75;5115231;28;20218;-76
2023/10/11 10:09:16;;;;;;;11.30;6.07;;;;;;;21.57;66.30;98359.25;5114755;28;20274;-76
2023/10/11 10:12:21;;;;;;;12.73;5.50;;;;;;;21.82;63.85;98359.91;5115078;28;20191;-76
2023/10/11 10:15:01;;;;;;;11.40;5.47;;;;;;;22.06;63.65;98354.56;5051714;28;20197;-76
2023/10/11 10:17:28;;;;;;;14.00;6.00;;;;;;;22.04;63.10;98349.41;5108560;28;20235;-76
2023/10/11 10:20:00;;;;;;;14.60;5.93;;;;;;;21.99;65.38;98351.34;5114965;28;20244;-76
2023/10/11 10:22:31;;;;;;;15.43;6.33;;;;;;;22.25;63.24;98355.44;5114845;28;20199;-76
2023/10/11 10:25:19;;;;;;;11.68;5.75;;;;;;;22.52;62.77;98366.56;5114616;28;20207;-76
2023/10/11 10:27:46;;;;;;;12.20;5.77;;;;;;;22.29;64.68;98357.28;5114231;28;20332;-76
2023/10/11 10:30:21;;;;;;;12.88;7.10;;;;;;;22.19;63.04;98360.09;5114377;28;20210;-76
2023/10/11 10:33:19;;;;;;;14.30;6.47;;;;;;;22.64;62.10;98361.53;5114541;28;20304;-76
2023/10/11 10:35:45;;;;;;;12.93;6.32;;;;;;;22.59;61.46;98367.00;5114148;28;20203;-76
2023/10/11 10:38:12;;;;;;;19.88;6.97;;;;;;;22.56;61.01;98359.47;5114211;28;20326;-76
2023/10/11 10:40:42;;;;;;;15.02;7.78;;;;;;;22.53;60.53;98357.34;5114013;28;20684;-75
2023/10/11 10:43:08;;;;;;;18.45;6.68;;;;;;;22.56;60.98;98354.06;5113247;28;20192;-76
2023/10/11 10:45:35;;;;;;;14.32;6.15;;;;;;;22.90;61.72;98352.00;5114039;28;20223;-76
2023/10/11 10:48:23;;;;;;;13.20;7.25;;;;;;;23.29;59.22;98341.75;5110474;28;20216;-76
2023/10/11 10:50:54;;;;;;;16.08;7.07;;;;;;;23.11;59.40;98334.38;5093823;28;20203;-75
2023/10/11 10:53:21;;;;;;;14.20;7.20;;;;;;;23.03;58.68;98340.44;5093605;28;20570;-75
2023/10/11 10:55:47;;;;;;;13.85;6.60;;;;;;;23.44;57.06;98328.75;5093376;28;20444;-75
2023/10/11 10:58:22;;;;;;;14.23;6.07;;;;;;;23.74;56.15;98325.53;5102432;28;20700;-75
2023/10/11 11:00:54;;;;;;;13.77;6.28;;;;;;;23.32;58.01;98322.13;5102194;28;20200;-75
2023/10/11 11:03:23;;;;;;;10.77;6.20;;;;;;;23.50;55.64;98318.59;5099819;28;20207;-75
2023/10/11 11:05:56;;;;;;;12.80;5.40;;;;;;;23.73;55.81;98315.78;5092729;28;20230;-75
2023/10/11 11:08:27;;;;;;;13.90;5.05;;;;;;;23.60;56.02;98315.75;5093312;28;20224;-75
2023/10/11 11:11:25;;;;;;;12.73;5.35;;;;;;;23.68;53.07;98313.16;5104207;28;20196;-74
2023/10/11 11:13:54;;;;;;;16.33;5.13;;;;;;;23.96;52.76;98303.19;5103240;28;20651;-74
2023/10/11 11:16:26;;;;;;;13.93;5.57;;;;;;;23.76;54.51;98298.91;5101979;28;20200;-74
2023/10/11 11:18:53;;;;;;;10.98;5.00;;;;;;;23.53;56.75;98297.13;5103027;28;20226;-74
2023/10/11 11:21:25;;;;;;;15.73;5.55;;;;;;;23.80;54.88;98294.50;5092965;28;20215;-75
2023/10/11 11:23:52;;;;;;;14.23;5.63;;;;;;;24.07;54.38;98291.06;5093249;28;20257;-74
2023/10/11 11:26:21;;;;;;;11.32;4.80;;;;;;;23.92;53.97;98294.06;5093150;28;20220;-74
2023/10/11 11:28:48;;;;;;;14.27;4.60;;;;;;;23.76;52.91;98284.53;5092989;28;20277;-74
2023/10/11 11:31:20;;;;;;;14.82;4.90;;;;;;;23.76;54.78;98279.09;5098234;28;20638;-74
2023/10/11 11:33:48;;;;;;;11.55;4.78;;;;;;;24.19;49.71;98288.66;5103478;28;20675;-74
2023/10/11 11:36:30;;;;;;;8.35;4.03;;;;;;;24.39;47.96;98271.94;5101798;28;20203;-74
2023/10/11 11:38:56;;;;;;;9.23;4.35;;;;;;;24.52;50.22;98276.59;5102269;28;20230;-74
2023/10/11 11:41:23;;;;;;;9.07;4.28;;;;;;;24.48;48.47;98276.41;5102748;28;20199;-74
2023/10/11 11:43:48;;;;;;;6.88;4.20;;;;;;;24.75;48.36;98272.88;5103996;28;20191;-75
2023/10/11 11:46:15;;;;;;;11.63;4.30;;;;;;;24.93;48.15;98272.72;5102180;28;20583;-74
2023/10/11 11:48:41;;;;;;;6.95;4.00;;;;;;;24.78;49.82;98269.53;5104869;28;20242;-74
2023/10/11 11:51:14;;;;;;;9.90;4.45;;;;;;;24.91;49.19;98266.78;5107892;28;20249;-74
2023/10/11 11:53:43;;;;;;;14.50;5.18;;;;;;;24.95;48.96;98266.97;5102137;28;20211;-74
2023/10/11 11:56:12;;;;;;;12.27;4.60;;;;;;;25.04;49.54;98254.25;5102736;28;20229;-74
2023/10/11 11:58:45;;;;;;;9.90;4.78;;;;;;;24.83;47.62;98264.00;5103791;28;20222;-74
2023/10/11 12:01:19;;;;;;;10.70;4.82;;;;;;;24.61;49.23;98259.28;5101224;28;20210;-74
2023/10/11 12:03:53;;;;;;;12.40;4.55;;;;;;;24.64;47.44;98255.94;5092939;28;20207;-74
2023/10/11 12:06:23;;;;;;;9.68;4.55;;;;;;;24.78;48.65;98255.94;5092852;28;20208;-74
2023/10/11 12:09:00;;;;;;;12.32;5.05;;;;;;;24.76;46.96;98250.00;5092675;28;20234;-75
2023/10/11 12:11:29;;;;;;;11.02;4.40;;;;;;;24.94;46.55;98244.41;5093139;28;20555;-76